Time;durP1;ratioP1;P1;durP2;ratioP2;P2;SDS_P1;SDS_P2;PMS_P1;PMS_P2;Temp;Humidity;BMP_temperature;BMP_pressure;BME280_temperature;BME280_humidity;BME280_pressure;Samples;Min_cycle;Max_cycle;Signal;HPM_P1;HPM_P2
2023/03/02 00:01:03;;;;;;;17.17;8.98;;;;;;;6.78;72.86;99983.50;4903869;29;20019;-93
2023/03/02 00:03:29;;;;;;;16.83;8.90;;;;;;;6.79;72.51;99990.50;4907078;29;20075;-94
2023/03/02 00:05:54;;;;;;;17.08;9.48;;;;;;;6.67;72.76;99971.72;4906544;29;20027;-94
2023/03/02 00:08:20;;;;;;;19.88;9.77;;;;;;;6.63;73.07;99975.91;4907210;29;20497;-93
2023/03/02 00:10:45;;;;;;;16.55;8.77;;;;;;;6.82;72.81;99998.06;4907047;29;20034;-93
2023/03/02 00:13:11;;;;;;;17.38;8.88;;;;;;;6.80;73.56;99986.78;4906906;29;20032;-92
2023/03/02 00:15:37;;;;;;;17.30;9.57;;;;;;;6.71;73.17;99991.63;4906776;29;20031;-93
2023/03/02 00:18:02;;;;;;;17.65;9.50;;;;;;;6.45;73.20;99963.38;4906933;29;20032;-93
2023/03/02 00:20:28;;;;;;;16.67;8.70;;;;;;;6.45;74.51;99985.63;4907701;29;20622;-93
2023/03/02 00:22:54;;;;;;;18.63;9.95;;;;;;;6.50;74.22;99992.97;4906641;29;20023;-92
2023/03/02 00:25:19;;;;;;;17.38;9.68;;;;;;;6.36;74.55;99973.59;4922760;29;20455;-93
2023/03/02 00:27:45;;;;;;;17.15;9.13;;;;;;;6.33;74.22;99967.88;4906639;29;20024;-92
2023/03/02 00:30:11;;;;;;;18.85;9.93;;;;;;;6.46;74.13;99984.56;4906446;29;20031;-93
2023/03/02 00:32:36;;;;;;;17.88;9.60;;;;;;;6.51;73.68;99975.03;4905859;29;20051;-93
2023/03/02 00:35:03;;;;;;;16.98;9.48;;;;;;;6.36;74.08;99976.25;4906561;29;20433;-93
2023/03/02 00:37:28;;;;;;;16.17;9.05;;;;;;;6.42;74.33;99987.94;4906165;29;20110;-93
2023/03/02 00:39:53;;;;;;;22.17;9.95;;;;;;;6.34;74.21;99973.00;4906369;29;20183;-93
2023/03/02 00:42:20;;;;;;;19.38;10.05;;;;;;;6.45;73.82;99976.75;4905662;29;20019;-93
2023/03/02 00:44:45;;;;;;;21.05;9.75;;;;;;;6.41;74.04;99959.53;4905709;29;20024;-93
2023/03/02 00:47:11;;;;;;;19.50;10.30;;;;;;;6.42;73.50;99953.16;4906094;29;20024;-93
2023/03/02 00:49:37;;;;;;;18.20;10.45;;;;;;;6.41;73.56;99962.19;4906516;29;20114;-93
2023/03/02 00:52:03;;;;;;;20.23;10.05;;;;;;;6.20;73.18;99934.91;4906372;29;20024;-93
2023/03/02 00:54:29;;;;;;;16.75;10.38;;;;;;;6.31;73.72;99953.91;4907041;29;20032;-93
2023/03/02 00:56:54;;;;;;;20.40;10.90;;;;;;;6.18;73.58;99953.03;4922143;29;20028;-93
2023/03/02 00:59:29;;;;;;;18.75;10.48;;;;;;;6.16;73.62;99924.88;4890328;29;20028;-92
2023/03/02 01:01:58;;;;;;;16.52;9.43;;;;;;;6.31;73.63;99937.84;4892218;29;20074;-94
2023/03/02 01:04:29;;;;;;;17.92;10.43;;;;;;;6.20;74.44;99937.56;4905122;29;20118;-93
2023/03/02 01:07:00;;;;;;;16.95;10.32;;;;;;;6.19;74.01;99933.28;4906176;29;20031;-93
2023/03/02 01:09:26;;;;;;;19.35;10.18;;;;;;;6.21;74.01;99933.88;4905792;29;20031;-93
2023/03/02 01:11:51;;;;;;;20.02;10.85;;;;;;;6.15;74.18;99937.44;4921319;29;20094;-92
2023/03/02 01:14:17;;;;;;;17.10;10.38;;;;;;;5.96;75.32;99936.66;4904862;29;20493;-93
2023/03/02 01:16:46;;;;;;;18.42;11.10;;;;;;;6.05;74.06;99924.59;4905289;29;20482;-94
2023/03/02 01:19:12;;;;;;;19.85;11.00;;;;;;;6.09;74.22;99918.81;4905577;29;20044;-93
2023/03/02 01:21:37;;;;;;;22.80;10.73;;;;;;;5.93;74.46;99937.06;4905485;29;20038;-93
2023/03/02 01:24:03;;;;;;;18.75;10.90;;;;;;;6.15;74.53;99953.50;4889533;29;20058;-93
2023/03/02 01:26:29;;;;;;;20.25;11.98;;;;;;;6.05;74.46;99937.97;4905376;29;20079;-93
2023/03/02 01:28:55;;;;;;;22.60;11.35;;;;;;;6.08;74.19;99942.06;4905468;29;20043;-94
2023/03/02 01:31:21;;;;;;;19.95;11.23;;;;;;;6.08;74.09;99947.44;4905101;29;20027;-93
2023/03/02 01:33:47;;;;;;;21.10;11.02;;;;;;;6.15;74.53;99942.81;4889401;29;20055;-93
2023/03/02 01:36:12;;;;;;;18.92;11.20;;;;;;;6.13;74.47;99944.88;4905306;29;20036;-93
2023/03/02 01:38:38;;;;;;;18.00;11.43;;;;;;;6.14;74.67;99940.34;4905272;29;20051;-93
2023/03/02 01:41:03;;;;;;;20.83;11.35;;;;;;;6.13;74.53;99950.22;4905616;29;20035;-93
2023/03/02 01:43:29;;;;;;;20.35;10.95;;;;;;;6.20;74.50;99950.94;4905256;29;20134;-94
2023/03/02 01:46:13;;;;;;;20.23;11.95;;;;;;;6.25;74.77;99952.97;4889379;29;20031;-93
2023/03/02 01:48:52;;;;;;;18.52;11.45;;;;;;;6.13;74.32;99942.22;4920688;29;20024;-93
2023/03/02 01:51:20;;;;;;;21.42;11.52;;;;;;;6.08;74.63;99931.38;4920433;29;20083;-93
2023/03/02 01:53:45;;;;;;;19.30;12.35;;;;;;;6.16;74.32;99923.03;4889653;29;20458;-93
2023/03/02 01:56:15;;;;;;;19.38;11.60;;;;;;;6.03;74.75;99932.03;4904888;29;20032;-93
2023/03/02 01:58:41;;;;;;;19.85;11.60;;;;;;;5.96;75.74;99920.63;4889105;29;20391;-92
2023/03/02 02:01:14;;;;;;;22.63;11.80;;;;;;;6.16;74.91;99938.25;4904357;29;20032;-93
2023/03/02 02:03:43;;;;;;;22.10;11.15;;;;;;;6.16;74.50;99938.25;4905668;29;20035;-93
2023/03/02 02:06:22;;;;;;;23.25;11.73;;;;;;;6.16;74.73;99931.03;4890382;29;20054;-93
2023/03/02 02:08:48;;;;;;;20.38;11.38;;;;;;;6.15;74.65;99937.44;4905299;29;20107;-93
2023/03/02 02:11:14;;;;;;;20.92;11.48;;;;;;;6.18;74.44;99936.19;4889420;29;20039;-92
2023/03/02 02:13:40;;;;;;;23.60;12.48;;;;;;;6.19;74.85;99943.19;4904508;29;20027;-93
2023/03/02 02:16:05;;;;;;;20.45;10.90;;;;;;;6.15;74.87;99942.81;4905264;29;20047;-93
2023/03/02 02:18:32;;;;;;;18.33;11.20;;;;;;;6.11;74.63;99944.28;4904450;29;20090;-93
2023/03/02 02:20:58;;;;;;;22.13;12.30;;;;;;;6.29;73.71;99948.81;4904418;29;20054;-93
2023/03/02 02:23:32;;;;;;;19.92;11.88;;;;;;;6.26;73.79;99951.91;4904493;29;20398;-93
2023/03/02 02:26:06;;;;;;;19.30;11.15;;;;;;;6.16;75.07;99944.41;4904474;29;20039;-94
2023/03/02 02:28:47;;;;;;;19.13;11.43;;;;;;;6.20;74.92;99944.78;4904542;29;20035;-92
2023/03/02 02:31:16;;;;;;;21.23;12.38;;;;;;;6.04;74.81;99944.38;4919998;29;20036;-93
2023/03/02 02:33:44;;;;;;;20.42;12.18;;;;;;;6.11;73.90;99936.28;4919980;29;20055;-92
2023/03/02 02:36:15;;;;;;;20.20;11.95;;;;;;;6.09;75.07;99938.34;4889020;29;20133;-92
2023/03/02 02:38:41;;;;;;;23.77;13.48;;;;;;;5.90;74.72;99924.16;4904294;29;20028;-94
2023/03/02 02:41:07;;;;;;;24.13;13.38;;;;;;;6.14;73.81;99945.69;4904637;29;20038;-93
2023/03/02 02:43:33;;;;;;;23.75;13.10;;;;;;;6.00;74.23;99937.03;4904318;29;20020;-92
2023/03/02 02:45:58;;;;;;;25.15;13.60;;;;;;;6.05;74.91;99947.84;4904714;29;20027;-92
2023/03/02 02:48:25;;;;;;;23.42;12.65;;;;;;;5.93;75.19;99929.03;4888288;29;20020;-94
2023/03/02 02:50:59;;;;;;;20.55;12.23;;;;;;;6.00;74.08;99929.03;4904106;29;20390;-93
2023/03/02 02:53:43;;;;;;;24.52;12.82;;;;;;;6.21;74.12;99952.59;4905321;29;20127;-93
2023/03/02 02:56:09;;;;;;;22.92;12.05;;;;;;;6.00;74.37;99945.06;4920447;29;20545;-92
2023/03/02 02:58:46;;;;;;;20.17;11.93;;;;;;;6.01;74.71;99938.66;4904390;29;20027;-93
2023/03/02 03:01:13;;;;;;;22.38;13.05;;;;;;;6.02;74.99;99942.97;4905029;29;20028;-93
2023/03/02 03:03:39;;;;;;;21.90;12.77;;;;;;;6.10;74.69;99947.19;4888198;29;20103;-93
2023/03/02 03:06:06;;;;;;;20.55;12.73;;;;;;;5.83;74.90;99928.75;4904161;29;20059;-92
2023/03/02 03:08:44;;;;;;;18.83;11.90;;;;;;;5.84;75.36;99947.25;4904260;29;20445;-92
2023/03/02 03:11:14;;;;;;;20.65;12.18;;;;;;;5.65;75.11;99916.22;4919660;29;20031;-93
2023/03/02 03:13:40;;;;;;;21.63;11.30;;;;;;;5.94;74.89;99951.25;4888489;29;20023;-92
2023/03/02 03:16:06;;;;;;;21.98;11.93;;;;;;;5.80;75.57;99937.22;4903657;29;20107;-93
2023/03/02 03:18:32;;;;;;;20.38;12.38;;;;;;;5.77;76.18;99935.00;4904381;29;20078;-93
2023/03/02 03:20:57;;;;;;;21.63;12.45;;;;;;;5.93;75.43;99953.09;4904008;29;20032;-92
2023/03/02 03:23:23;;;;;;;21.23;11.35;;;;;;;5.91;75.07;99947.16;4903778;29;20070;-93
2023/03/02 03:25:49;;;;;;;15.95;10.35;;;;;;;5.73;75.98;99944.47;4904161;29;20470;-92
2023/03/02 03:28:17;;;;;;;18.45;11.30;;;;;;;5.67;76.18;99948.88;4903736;29;20103;-93
2023/03/02 03:30:43;;;;;;;17.52;10.77;;;;;;;5.74;75.69;99943.47;4904104;29;20034;-93
2023/03/02 03:33:12;;;;;;;17.75;11.27;;;;;;;5.81;75.18;99952.22;4903471;29;20429;-93
2023/03/02 03:35:37;;;;;;;19.02;10.80;;;;;;;5.85;74.43;99948.88;4903684;29;20043;-93
2023/03/02 03:38:04;;;;;;;20.23;10.93;;;;;;;5.82;74.67;99954.66;4907800;29;20036;-93
2023/03/02 03:40:33;;;;;;;17.63;11.18;;;;;;;5.83;74.91;99956.31;4907502;29;20474;-93
2023/03/02 03:43:02;;;;;;;19.42;10.45;;;;;;;5.77;75.01;99953.69;4907558;29;20027;-93
2023/03/02 03:45:28;;;;;;;19.65;10.50;;;;;;;5.83;75.24;99967.00;4907118;29;20036;-94
2023/03/02 03:47:54;;;;;;;17.60;10.98;;;;;;;5.74;75.63;99951.47;4891323;29;20031;-93
2023/03/02 03:50:19;;;;;;;19.98;11.00;;;;;;;5.93;74.77;99961.13;4906925;29;20059;-93
2023/03/02 03:52:45;;;;;;;19.05;11.20;;;;;;;5.81;74.36;99955.72;4906705;29;20486;-93
2023/03/02 03:55:11;;;;;;;20.65;10.30;;;;;;;5.76;74.50;99954.75;4907635;29;20087;-92
2023/03/02 03:57:36;;;;;;;20.80;11.65;;;;;;;5.79;75.19;99959.63;4906893;29;20028;-93
2023/03/02 04:00:05;;;;;;;18.42;10.77;;;;;;;5.83;75.08;99971.50;4907117;29;20034;-94
2023/03/02 04:02:30;;;;;;;18.60;11.07;;;;;;;5.60;75.64;99948.13;4906566;29;20031;-93
2023/03/02 04:05:05;;;;;;;20.15;11.05;;;;;;;5.61;76.41;99973.81;4891141;29;20483;-93
2023/03/02 04:07:31;;;;;;;20.38;10.80;;;;;;;5.55;75.62;99947.97;4893795;29;20036;-93
2023/03/02 04:10:02;;;;;;;21.75;12.02;;;;;;;5.43;76.33;99950.56;4891514;29;20046;-92
2023/03/02 04:12:36;;;;;;;20.73;12.38;;;;;;;5.61;76.06;99963.13;4892524;29;20032;-93
2023/03/02 04:15:04;;;;;;;22.92;11.32;;;;;;;5.51;76.90;99939.59;4891500;29;20138;-93
2023/03/02 04:17:30;;;;;;;22.77;12.35;;;;;;;5.58;76.22;99944.84;4907048;29;20062;-93
2023/03/02 04:19:56;;;;;;;18.38;11.32;;;;;;;5.69;74.61;99937.97;4906633;29;20126;-93
2023/03/02 04:22:22;;;;;;;19.33;11.15;;;;;;;5.74;75.87;99954.16;4891567;29;20023;-92
2023/03/02 04:24:48;;;;;;;20.25;11.07;;;;;;;5.56;75.46;99926.41;4890925;29;20039;-93
2023/03/02 04:27:13;;;;;;;18.75;11.68;;;;;;;5.78;75.57;99944.66;4891017;29;20035;-93
2023/03/02 04:29:45;;;;;;;17.00;10.90;;;;;;;5.69;74.88;99927.28;4891026;29;20091;-93
2023/03/02 04:32:13;;;;;;;22.52;10.77;;;;;;;5.56;75.34;99938.91;4890767;29;20107;-93
2023/03/02 04:34:39;;;;;;;20.48;12.65;;;;;;;5.55;75.90;99915.94;4892003;29;20051;-93
2023/03/02 04:37:05;;;;;;;18.45;11.65;;;;;;;5.65;75.73;99933.06;4891184;29;20119;-94
2023/03/02 04:39:30;;;;;;;14.73;9.73;;;;;;;5.82;74.76;99937.81;4891438;29;20067;-95
2023/03/02 04:41:56;;;;;;;17.17;11.05;;;;;;;5.83;75.51;99936.78;4891717;29;20122;-93
2023/03/02 04:44:22;;;;;;;19.42;11.43;;;;;;;5.85;75.16;99948.06;4890757;29;20458;-93
2023/03/02 04:46:48;;;;;;;15.90;9.25;;;;;;;5.97;74.35;99942.81;4890804;29;20070;-93
2023/03/02 04:49:16;;;;;;;18.23;10.68;;;;;;;6.06;74.13;99957.53;4904602;29;20027;-93
2023/03/02 04:51:43;;;;;;;15.52;8.93;;;;;;;5.93;74.03;99939.72;4891844;29;20032;-94
2023/03/02 04:54:17;;;;;;;17.55;9.48;;;;;;;5.88;73.77;99944.94;4906221;29;20076;-95
2023/03/02 04:56:43;;;;;;;15.20;9.23;;;;;;;5.86;74.39;99939.00;4891506;29;20015;-94
2023/03/02 04:59:09;;;;;;;19.38;10.05;;;;;;;6.01;75.12;99946.69;4891007;29;20024;-93
2023/03/02 05:01:37;;;;;;;18.33;10.25;;;;;;;6.06;74.67;99953.00;4891134;29;20020;-94
2023/03/02 05:04:03;;;;;;;18.35;10.57;;;;;;;6.02;73.92;99959.00;4892482;29;20027;-93
2023/03/02 05:06:29;;;;;;;15.30;10.32;;;;;;;5.82;75.17;99953.84;4890795;29;20027;-94
2023/03/02 05:08:58;;;;;;;16.73;10.20;;;;;;;5.60;75.44;99948.13;4891264;29;20055;-94
2023/03/02 05:11:24;;;;;;;17.55;10.68;;;;;;;5.65;74.84;99954.44;4891382;29;20110;-93
2023/03/02 05:13:51;;;;;;;19.02;11.45;;;;;;;5.77;75.02;99970.56;4890534;29;20055;-93
2023/03/02 05:16:17;;;;;;;17.77;11.13;;;;;;;5.85;73.92;99958.75;4891459;29;20079;-94
2023/03/02 05:18:43;;;;;;;20.50;11.40;;;;;;;5.70;75.59;99963.66;4890515;29;20029;-93
2023/03/02 05:21:14;;;;;;;18.88;10.93;;;;;;;5.81;74.61;99969.09;4891221;29;20540;-94
2023/03/02 05:23:43;;;;;;;21.25;11.65;;;;;;;5.93;75.15;99989.72;4891913;29;20034;-93
2023/03/02 05:26:11;;;;;;;21.40;10.05;;;;;;;5.95;74.45;99984.97;4892266;29;20478;-94
2023/03/02 05:28:46;;;;;;;16.02;11.00;;;;;;;5.80;73.95;99983.47;4892707;29;20134;-92
2023/03/02 05:31:23;;;;;;;20.42;11.70;;;;;;;5.82;74.63;99985.91;4893985;29;20036;-93
2023/03/02 05:33:56;;;;;;;24.33;10.70;;;;;;;5.95;73.91;99984.97;4892174;29;20074;-94
2023/03/02 05:36:42;;;;;;;20.40;12.05;;;;;;;5.90;74.80;99974.13;4882013;29;20522;-93
2023/03/02 05:39:08;;;;;;;21.60;12.77;;;;;;;6.05;75.16;99998.66;4835457;29;20085;-92
2023/03/02 05:41:44;;;;;;;24.35;12.70;;;;;;;5.95;74.92;99985.78;4834819;29;20408;-94
2023/03/02 05:44:14;;;;;;;19.60;11.80;;;;;;;6.01;75.00;99994.78;4836988;29;20036;-93
2023/03/02 05:46:41;;;;;;;20.42;11.82;;;;;;;5.97;74.37;99986.38;4851026;29;20153;-93
2023/03/02 05:49:07;;;;;;;19.85;11.32;;;;;;;5.91;75.37;99991.78;4849857;29;20732;-92
2023/03/02 05:51:35;;;;;;;40.08;22.42;;;;;;;5.84;75.22;99976.63;4854281;29;20074;-93
2023/03/02 05:54:03;;;;;;;29.23;17.77;;;;;;;5.79;75.20;99995.22;4884038;29;20452;-94
2023/03/02 05:56:29;;;;;;;35.17;19.75;;;;;;;5.93;74.34;100011.09;4869100;29;20034;-93
2023/03/02 05:59:01;;;;;;;128.13;49.20;;;;;;;5.78;74.89;100014.94;4853057;29;20077;-92
2023/03/02 06:01:35;;;;;;;21.25;11.63;;;;;;;5.79;74.14;100011.25;4884685;29;20115;-91
2023/03/02 06:04:01;;;;;;;23.70;11.75;;;;;;;5.92;74.17;100015.63;4883546;29;20033;-92
2023/03/02 06:06:27;;;;;;;19.00;11.18;;;;;;;5.88;73.51;100012.56;4883400;29;20140;-92
2023/03/02 06:08:56;;;;;;;21.13;10.77;;;;;;;5.91;74.40;100022.00;4870703;29;20048;-95
2023/03/02 06:11:22;;;;;;;21.00;10.93;;;;;;;5.66;74.14;99992.66;4884036;29;20097;-92
2023/03/02 06:13:50;;;;;;;22.92;11.50;;;;;;;5.81;75.05;100006.50;4898391;29;20039;-90
2023/03/02 06:16:16;;;;;;;18.75;10.30;;;;;;;5.84;74.51;100003.38;4921547;29;20020;-93
2023/03/02 06:18:46;;;;;;;21.50;11.10;;;;;;;5.86;73.46;100001.28;4890891;29;20080;-94
2023/03/02 06:21:32;;;;;;;19.00;10.27;;;;;;;5.69;74.49;100002.91;4907896;29;20036;-96
2023/03/02 06:24:04;;;;;;;22.02;10.45;;;;;;;5.76;74.09;100017.00;5721048;23;20022;-96
2023/03/02 06:34:10;;;;;;;18.83;10.18;;;;;;;6.01;73.14;100008.16;4947381;28;20066;-96
2023/03/02 06:36:55;;;;;;;18.40;10.63;;;;;;;5.87;73.39;100010.94;4917212;29;20011;-95
2023/03/02 06:39:21;;;;;;;20.05;11.32;;;;;;;5.96;73.45;100014.19;4859936;29;20045;-95
2023/03/02 06:41:57;;;;;;;16.60;9.65;;;;;;;6.02;73.01;100005.28;5286618;23;20104;-94
2023/03/02 06:44:23;;;;;;;18.05;11.05;;;;;;;6.15;71.59;100014.19;4930443;29;20043;-94
2023/03/02 07:36:29;;;;;;;23.35;9.95;;;;;;;7.00;69.63;100003.38;5152778;23;19951;-94
2023/03/02 07:39:30;;;;;;;18.13;9.90;;;;;;;7.21;68.99;99996.66;4899938;29;20040;-95
2023/03/02 07:48:50;;;;;;;16.58;9.65;;;;;;;7.48;68.21;99997.00;4821198;29;20166;-94
2023/03/02 08:00:12;;;;;;;16.83;10.03;;;;;;;7.64;68.89;99998.19;5212273;23;20082;-94
2023/03/02 08:03:03;;;;;;;14.63;9.30;;;;;;;7.78;67.22;100006.81;4920109;29;20047;-93
2023/03/02 08:10:06;;;;;;;13.82;8.32;;;;;;;7.81;66.47;100005.53;4859536;29;20063;-94
2023/03/02 09:20:52;;;;;;;17.50;8.55;;;;;;;7.52;67.51;99997.38;4928059;28;20096;-95
2023/03/02 09:23:56;;;;;;;;;;;;;;;;;;;;;
2023/03/02 09:44:40;;;;;;;21.67;10.90;;;;;;;7.66;67.12;99984.56;4950673;29;20055;-95
2023/03/02 09:58:10;;;;;;;19.27;10.30;;;;;;;7.31;67.01;99976.53;2845203;23;20330;-87
2023/03/02 10:00:42;;;;;;;16.23;9.93;;;;;;;7.39;66.81;99966.28;4906466;29;20055;-94
2023/03/02 10:40:49;;;;;;;18.38;9.93;;;;;;;7.51;65.63;99944.00;4921515;29;20119;-95
2023/03/02 10:43:48;;;;;;;19.35;10.48;;;;;;;7.71;65.00;99943.66;4894457;29;20113;-95
2023/03/02 10:46:23;;;;;;;24.00;10.52;;;;;;;7.64;64.51;99916.97;4892556;29;20036;-95
2023/03/02 10:52:47;;;;;;;17.80;9.02;;;;;;;7.97;63.81;99939.63;4927509;29;20048;-92
2023/03/02 10:55:17;;;;;;;16.67;9.20;;;;;;;7.85;63.61;99920.91;4878091;29;20036;-94
2023/03/02 10:57:47;;;;;;;19.80;9.82;;;;;;;7.81;64.10;99920.56;4877318;29;20031;-94
2023/03/02 11:00:24;;;;;;;21.48;10.25;;;;;;;7.94;63.09;99921.34;4878213;29;20059;-93
2023/03/02 11:09:03;;;;;;;14.73;9.15;;;;;;;7.81;63.51;99933.16;5420832;23;20195;-94
2023/03/02 11:11:38;;;;;;;13.65;8.18;;;;;;;7.85;62.74;99923.59;4927580;29;20047;-94
2023/03/02 11:14:37;;;;;;;18.58;9.10;;;;;;;7.82;62.74;99913.31;4910820;29;20035;-94
2023/03/02 11:17:32;;;;;;;18.55;9.38;;;;;;;7.68;63.71;99902.88;4927916;29;20118;-95
2023/03/02 11:20:31;;;;;;;16.15;8.63;;;;;;;7.62;63.51;99913.72;4917235;29;20053;-95
2023/03/02 11:23:21;;;;;;;15.65;7.95;;;;;;;8.11;63.13;99930.25;4896718;29;20499;-95
2023/03/02 11:25:58;;;;;;;16.35;8.50;;;;;;;8.08;62.55;99928.88;4911659;29;20032;-95
2023/03/02 11:28:48;;;;;;;15.93;9.13;;;;;;;7.83;62.82;99910.41;4893550;29;20027;-95
2023/03/02 11:31:34;;;;;;;13.00;8.43;;;;;;;7.84;63.20;99920.09;5230341;23;20111;-96
2023/03/02 11:34:12;;;;;;;18.27;10.27;;;;;;;7.94;63.54;99926.69;4915180;29;20040;-96
2023/03/02 11:44:20;;;;;;;16.17;8.27;;;;;;;7.77;62.68;99902.50;4904880;29;20063;-94
2023/03/02 11:47:29;;;;;;;15.82;7.82;;;;;;;7.84;62.67;99913.91;4889204;29;20043;-94
2023/03/02 12:15:25;;;;;;;16.80;8.43;;;;;;;8.12;61.85;99897.03;4806020;29;20078;-94
2023/03/02 12:38:21;;;;;;;11.02;6.90;;;;;;;8.36;61.42;99900.41;4989419;23;20059;-93
2023/03/02 12:41:23;;;;;;;;;;;;;;;;;;;;;
2023/03/02 13:00:38;;;;;;;11.45;7.50;;;;;;;8.59;60.89;99894.16;5093851;23;20138;-95
2023/03/02 13:03:40;;;;;;;12.43;7.78;;;;;;;8.26;62.07;99871.53;4915498;29;20076;-95
2023/03/02 13:22:11;;;;;;;15.65;7.53;;;;;;;8.30;60.50;99893.34;4910009;29;20065;-96
2023/03/02 13:24:57;;;;;;;15.75;7.57;;;;;;;8.06;61.12;99873.84;4872727;29;20033;-96
2023/03/02 13:27:32;;;;;;;18.05;9.68;;;;;;;8.03;60.91;99863.59;4881243;29;20039;-95
2023/03/02 14:05:31;;;;;;;19.50;10.55;;;;;;;7.67;60.87;99828.06;4935129;23;20111;-94
2023/03/02 14:19:17;;;;;;;25.45;13.18;;;;;;;8.04;58.90;99833.84;4942450;29;20048;-95
2023/03/02 14:22:19;;;;;;;27.88;18.05;;;;;;;8.10;59.46;99824.84;4909867;29;20024;-94
2023/03/02 14:24:48;;;;;;;21.00;10.43;;;;;;;7.88;60.15;99818.53;4868099;29;20029;-94
2023/03/02 14:27:14;;;;;;;18.52;10.60;;;;;;;8.05;60.17;99819.41;4916629;29;20042;-95
2023/03/02 14:29:40;;;;;;;20.25;11.10;;;;;;;8.19;59.77;99819.09;4916546;29;20031;-95
2023/03/02 14:32:10;;;;;;;16.70;11.25;;;;;;;8.34;58.93;99805.13;4912084;29;20035;-96
2023/03/02 14:34:36;;;;;;;18.77;11.48;;;;;;;8.26;59.63;99811.72;4913269;29;20062;-95
2023/03/02 14:37:03;;;;;;;18.30;10.18;;;;;;;8.14;58.76;99819.81;4910494;29;20067;-95
2023/03/02 14:39:39;;;;;;;15.23;10.45;;;;;;;8.00;59.70;99818.50;4906765;29;20026;-95
2023/03/02 14:42:10;;;;;;;17.52;10.35;;;;;;;8.07;59.65;99835.22;4907486;29;20441;-94
2023/03/02 14:44:41;;;;;;;17.67;11.02;;;;;;;8.20;59.64;99826.09;4911740;29;20039;-95
2023/03/02 14:47:09;;;;;;;19.33;11.05;;;;;;;8.18;59.35;99830.88;4932049;29;20031;-94
2023/03/02 14:49:35;;;;;;;15.68;10.82;;;;;;;8.09;59.59;99822.41;4896864;29;20106;-94
2023/03/02 14:52:17;;;;;;;18.67;12.07;;;;;;;8.03;59.74;99816.16;4911714;29;20027;-95
2023/03/02 14:55:17;;;;;;;20.17;10.85;;;;;;;8.18;59.10;99831.69;4908905;29;20051;-95
2023/03/02 14:58:05;;;;;;;21.98;11.45;;;;;;;8.30;59.81;99840.50;4924847;29;20517;-94
2023/03/02 15:00:37;;;;;;;19.80;11.23;;;;;;;8.07;59.97;99811.94;4909626;29;20095;-96
2023/03/02 15:09:31;;;;;;;18.23;11.88;;;;;;;7.99;61.03;99830.25;4943089;29;20137;-94
2023/03/02 15:11:59;;;;;;;22.40;11.88;;;;;;;7.88;60.60;99807.81;4923306;29;20036;-93
2023/03/02 15:14:25;;;;;;;20.80;12.85;;;;;;;7.97;60.05;99811.75;4920877;29;20070;-96
2023/03/02 15:16:50;;;;;;;22.02;12.93;;;;;;;7.96;60.11;99810.09;4904540;29;20037;-96
2023/03/02 15:19:21;;;;;;;25.77;14.38;;;;;;;8.04;60.55;99820.44;4905546;29;20036;-93
2023/03/02 15:21:46;;;;;;;19.55;12.13;;;;;;;8.04;59.88;99807.03;4907060;29;20028;-95
2023/03/02 15:24:20;;;;;;;24.65;14.07;;;;;;;7.93;60.47;99807.09;4904289;29;20043;-93
2023/03/02 15:26:47;;;;;;;19.65;13.02;;;;;;;7.81;60.66;99801.78;4903107;29;20446;-93
2023/03/02 15:29:17;;;;;;;19.73;12.73;;;;;;;7.82;60.86;99804.25;4903880;29;20087;-94
2023/03/02 15:31:43;;;;;;;21.77;13.57;;;;;;;7.67;61.26;99799.38;4903535;29;20032;-94
2023/03/02 15:34:13;;;;;;;22.33;13.48;;;;;;;7.71;61.14;99785.50;4906299;29;20071;-94
2023/03/02 15:36:44;;;;;;;21.10;12.57;;;;;;;7.70;61.74;99787.38;4906599;29;20550;-95
2023/03/02 15:39:13;;;;;;;24.83;13.45;;;;;;;7.86;61.31;99792.00;4907195;29;20130;-96
2023/03/02 15:41:40;;;;;;;28.10;17.48;;;;;;;7.99;60.86;99787.34;4906550;29;20034;-94
2023/03/02 15:44:15;;;;;;;35.20;21.52;;;;;;;7.98;60.57;99789.22;4936618;29;20024;-94
2023/03/02 15:46:41;;;;;;;22.60;13.18;;;;;;;7.94;61.07;99803.38;4905271;29;20118;-92
2023/03/02 15:49:08;;;;;;;24.65;13.23;;;;;;;7.93;60.81;99797.19;4904495;29;20043;-94
2023/03/02 15:51:36;;;;;;;22.13;13.80;;;;;;;7.79;61.65;99788.63;4920715;29;20057;-93
2023/03/02 15:54:09;;;;;;;24.13;14.40;;;;;;;7.76;61.67;99786.44;4910066;29;20031;-94
2023/03/02 15:56:35;;;;;;;21.17;13.73;;;;;;;8.00;60.96;99799.72;4895511;29;20422;-93
2023/03/02 15:59:01;;;;;;;23.20;14.85;;;;;;;7.89;60.98;99801.41;4904462;29;20024;-93
2023/03/02 16:01:27;;;;;;;20.48;14.00;;;;;;;7.94;60.95;99809.53;4890767;29;20410;-94
2023/03/02 16:03:53;;;;;;;22.10;14.55;;;;;;;7.94;60.52;99806.84;4905212;29;20027;-92
2023/03/02 16:06:18;;;;;;;19.98;13.90;;;;;;;7.92;60.73;99808.16;4889543;29;20040;-92
2023/03/02 16:08:44;;;;;;;20.15;13.55;;;;;;;7.88;60.81;99803.25;4889325;29;20067;-92
2023/03/02 16:11:11;;;;;;;23.15;13.43;;;;;;;7.83;60.87;99808.53;4890856;29;20044;-93
2023/03/02 16:13:37;;;;;;;24.67;13.52;;;;;;;8.01;61.24;99817.41;4907609;29;20110;-92
2023/03/02 16:16:06;;;;;;;24.88;13.73;;;;;;;8.02;61.51;99821.75;4907972;29;20020;-93
2023/03/02 16:18:32;;;;;;;26.33;15.50;;;;;;;7.88;61.34;99818.53;4908996;29;20091;-93
2023/03/02 16:20:57;;;;;;;27.67;15.65;;;;;;;7.86;61.36;99809.91;4892013;29;20027;-92
2023/03/02 16:23:23;;;;;;;23.38;14.02;;;;;;;7.81;61.57;99820.56;4908246;29;20039;-93
2023/03/02 16:25:52;;;;;;;26.85;15.35;;;;;;;7.73;61.76;99808.34;4908512;29;20126;-93
2023/03/02 16:28:18;;;;;;;23.23;14.95;;;;;;;7.82;61.90;99814.13;4907914;29;20070;-93
2023/03/02 16:30:45;;;;;;;24.15;13.95;;;;;;;7.85;62.27;99833.25;4907420;29;20246;-95
2023/03/02 16:33:21;;;;;;;23.67;14.10;;;;;;;7.85;61.82;99832.44;4892976;29;20087;-94
2023/03/02 16:35:48;;;;;;;47.08;30.15;;;;;;;7.95;61.84;99832.63;4893949;29;20183;-94
2023/03/02 16:38:15;;;;;;;20.48;13.15;;;;;;;7.85;61.94;99845.84;4907716;29;20549;-95
2023/03/02 16:40:41;;;;;;;22.65;13.27;;;;;;;7.93;62.16;99839.25;4906662;29;20043;-94
2023/03/02 16:43:09;;;;;;;20.40;13.95;;;;;;;7.92;61.99;99821.56;4906735;29;20028;-94
2023/03/02 16:45:41;;;;;;;21.10;12.30;;;;;;;8.05;61.76;99848.91;4922551;29;20119;-94
2023/03/02 16:48:07;;;;;;;19.75;12.10;;;;;;;7.96;61.48;99836.91;4908004;29;20502;-93
2023/03/02 16:50:33;;;;;;;21.00;13.20;;;;;;;7.90;61.95;99837.88;4891636;29;20028;-93
2023/03/02 16:52:59;;;;;;;23.60;12.88;;;;;;;7.69;62.80;99829.44;4891078;29;20058;-92
2023/03/02 16:55:25;;;;;;;20.92;13.15;;;;;;;7.93;62.88;99839.25;4907274;29;20028;-92
2023/03/02 16:57:53;;;;;;;23.40;13.73;;;;;;;7.93;62.83;99840.09;4908316;29;20087;-93
2023/03/02 17:00:30;;;;;;;28.00;14.18;;;;;;;7.90;63.14;99846.72;4893079;29;20060;-94
2023/03/02 17:03:11;;;;;;;23.88;12.88;;;;;;;7.80;62.88;99849.25;4925349;29;20031;-94
2023/03/02 17:05:43;;;;;;;78.20;18.95;;;;;;;7.76;62.84;99847.25;4895518;29;20479;-93
2023/03/02 17:08:13;;;;;;;24.95;13.95;;;;;;;7.54;63.61;99828.34;4908832;29;20078;-94
2023/03/02 17:10:39;;;;;;;22.75;13.95;;;;;;;7.61;64.26;99837.03;4907224;29;20055;-95
2023/03/02 17:13:43;;;;;;;25.35;13.38;;;;;;;7.63;64.29;99834.94;4908049;29;20028;-94
2023/03/02 17:16:11;;;;;;;30.17;13.00;;;;;;;7.64;64.34;99824.00;4909666;29;20066;-94
2023/03/02 17:18:45;;;;;;;19.17;12.52;;;;;;;7.58;64.65;99821.44;4923760;29;20043;-93
2023/03/02 17:21:18;;;;;;;22.67;11.90;;;;;;;7.52;64.95;99852.69;4907314;29;20032;-94
2023/03/02 17:23:46;;;;;;;23.85;12.35;;;;;;;7.63;64.81;99857.19;4892379;29;20031;-93
2023/03/02 17:26:19;;;;;;;27.25;18.33;;;;;;;7.47;65.31;99842.69;4891599;29;20035;-94
2023/03/02 17:29:02;;;;;;;25.45;14.35;;;;;;;7.54;65.20;99849.78;4867869;29;20077;-93
2023/03/02 17:31:33;;;;;;;18.92;11.23;;;;;;;7.54;64.41;99847.91;4849867;29;20071;-94
2023/03/02 17:34:00;;;;;;;22.77;12.53;;;;;;;7.73;63.26;99853.91;4850639;29;20058;-94
2023/03/02 17:36:26;;;;;;;21.65;12.75;;;;;;;7.74;63.37;99849.34;4849926;29;20025;-93
2023/03/02 17:38:52;;;;;;;25.55;15.20;;;;;;;7.68;64.04;99843.91;4849227;29;20056;-93
2023/03/02 17:41:18;;;;;;;28.65;14.07;;;;;;;7.72;63.76;99846.09;4849317;29;20037;-94
2023/03/02 17:43:44;;;;;;;25.20;12.50;;;;;;;7.82;63.06;99848.97;4864862;29;20112;-94
2023/03/02 17:46:24;;;;;;;19.85;11.55;;;;;;;7.84;62.91;99847.72;4834344;29;20222;-94